sensor_id;sensor_type;location;lat;lon;timestamp;pressure;altitude;pressure_sealevel;temperature;humidity
68169;BME280;54981;50.206;15.978;2023-01-28T00:00:41;99324.75;;;-0.05;100.00
68169;BME280;54981;50.206;15.978;2023-01-28T00:03:41;99322.13;;;-0.04;100.00
68169;BME280;54981;50.206;15.978;2023-01-28T00:06:41;99323.84;;;-0.03;100.00
68169;BME280;54981;50.206;15.978;2023-01-28T00:09:42;99328.22;;;-0.02;100.00
68169;BME280;54981;50.206;15.978;2023-01-28T00:12:42;99323.88;;;-0.01;100.00
68169;BME280;54981;50.206;15.978;2023-01-28T00:15:43;99322.97;;;0.03;100.00
68169;BME280;54981;50.206;15.978;2023-01-28T00:18:43;99324.72;;;0.01;100.00
68169;BME280;54981;50.206;15.978;2023-01-28T00:21:43;99334.31;;;0.02;100.00
68169;BME280;54981;50.206;15.978;2023-01-28T00:24:44;99336.91;;;0.02;100.00
68169;BME280;54981;50.206;15.978;2023-01-28T00:27:45;99335.16;;;0.04;100.00
68169;BME280;54981;50.206;15.978;2023-01-28T00:30:45;99344.78;;;0.02;100.00
68169;BME280;54981;50.206;15.978;2023-01-28T00:33:47;99334.41;;;-0.12;100.00
68169;BME280;54981;50.206;15.978;2023-01-28T00:36:48;99343.97;;;-0.12;100.00
68169;BME280;54981;50.206;15.978;2023-01-28T00:39:56;99333.47;;;-0.03;100.00
68169;BME280;54981;50.206;15.978;2023-01-28T00:42:57;99334.38;;;-0.04;100.00
68169;BME280;54981;50.206;15.978;2023-01-28T00:45:57;99335.25;;;-0.08;100.00
68169;BME280;54981;50.206;15.978;2023-01-28T00:48:58;99338.72;;;-0.06;100.00
68169;BME280;54981;50.206;15.978;2023-01-28T00:51:58;99347.44;;;-0.06;100.00
68169;BME280;54981;50.206;15.978;2023-01-28T00:54:58;99354.44;;;-0.06;100.00
68169;BME280;54981;50.206;15.978;2023-01-28T00:57:59;99350.94;;;-0.08;100.00
68169;BME280;54981;50.206;15.978;2023-01-28T01:01:26;99350.13;;;-0.16;100.00
68169;BME280;54981;50.206;15.978;2023-01-28T01:04:26;99349.25;;;-0.15;100.00
68169;BME280;54981;50.206;15.978;2023-01-28T01:07:34;99354.47;;;-0.15;100.00
68169;BME280;54981;50.206;15.978;2023-01-28T01:10:40;99345.75;;;-0.17;100.00
68169;BME280;54981;50.206;15.978;2023-01-28T01:13:41;99353.63;;;-0.14;100.00
68169;BME280;54981;50.206;15.978;2023-01-28T01:16:41;99346.63;;;-0.17;100.00
68169;BME280;54981;50.206;15.978;2023-01-28T01:19:42;99344.03;;;-0.18;100.00
68169;BME280;54981;50.206;15.978;2023-01-28T01:22:42;99345.78;;;-0.20;100.00
68169;BME280;54981;50.206;15.978;2023-01-28T01:25:42;99353.63;;;-0.19;100.00
68169;BME280;54981;50.206;15.978;2023-01-28T01:28:43;99348.38;;;-0.14;100.00
68169;BME280;54981;50.206;15.978;2023-01-28T01:31:43;99344.88;;;-0.13;100.00
68169;BME280;54981;50.206;15.978;2023-01-28T01:34:44;99353.56;;;-0.10;100.00
68169;BME280;54981;50.206;15.978;2023-01-28T01:37:44;99347.47;;;-0.10;100.00
68169;BME280;54981;50.206;15.978;2023-01-28T01:40:45;99346.59;;;-0.06;100.00
68169;BME280;54981;50.206;15.978;2023-01-28T01:43:48;99350.94;;;-0.02;100.00
68169;BME280;54981;50.206;15.978;2023-01-28T01:46:49;99352.66;;;-0.01;100.00
68169;BME280;54981;50.206;15.978;2023-01-28T01:49:50;99352.66;;;-0.01;100.00
68169;BME280;54981;50.206;15.978;2023-01-28T01:52:55;99357.91;;;-0.06;100.00
68169;BME280;54981;50.206;15.978;2023-01-28T01:55:57;99367.53;;;-0.06;100.00
68169;BME280;54981;50.206;15.978;2023-01-28T01:58:59;99370.13;;;-0.03;100.00
68169;BME280;54981;50.206;15.978;2023-01-28T02:02:03;99370.97;;;-0.01;100.00
68169;BME280;54981;50.206;15.978;2023-01-28T02:05:05;99367.50;;;0.00;100.00
68169;BME280;54981;50.206;15.978;2023-01-28T02:08:06;99371.00;;;-0.06;100.00
68169;BME280;54981;50.206;15.978;2023-01-28T02:11:24;99376.25;;;-0.06;100.00
68169;BME280;54981;50.206;15.978;2023-01-28T02:14:28;99374.47;;;-0.04;100.00
68169;BME280;54981;50.206;15.978;2023-01-28T02:17:31;99378.84;;;-0.04;100.00
68169;BME280;54981;50.206;15.978;2023-01-28T02:27:34;99367.28;;;0.31;100.00
68169;BME280;54981;50.206;15.978;2023-01-28T02:30:40;99369.94;;;0.29;100.00
68169;BME280;54981;50.206;15.978;2023-01-28T02:37:24;99371.69;;;0.27;100.00
68169;BME280;54981;50.206;15.978;2023-01-28T02:40:28;99370.78;;;0.31;100.00
68169;BME280;54981;50.206;15.978;2023-01-28T02:46:36;99376.94;;;0.26;100.00
68169;BME280;54981;50.206;15.978;2023-01-28T02:49:58;99382.13;;;0.29;100.00
68169;BME280;54981;50.206;15.978;2023-01-28T02:53:11;99391.78;;;0.27;100.00
68169;BME280;54981;50.206;15.978;2023-01-28T02:57:08;99389.16;;;0.27;100.00
68169;BME280;54981;50.206;15.978;2023-01-28T03:00:16;99390.03;;;0.26;100.00
68169;BME280;54981;50.206;15.978;2023-01-28T03:03:38;99383.94;;;0.27;100.00
68169;BME280;54981;50.206;15.978;2023-01-28T03:06:47;99386.56;;;0.22;100.00
68169;BME280;54981;50.206;15.978;2023-01-28T03:09:51;99389.16;;;0.24;100.00
68169;BME280;54981;50.206;15.978;2023-01-28T03:12:54;99387.47;;;0.19;100.00
68169;BME280;54981;50.206;15.978;2023-01-28T03:16:14;99381.34;;;0.22;100.00
68169;BME280;54981;50.206;15.978;2023-01-28T03:19:33;99385.69;;;0.25;100.00
68169;BME280;54981;50.206;15.978;2023-01-28T03:22:55;99383.94;;;0.20;100.00
68169;BME280;54981;50.206;15.978;2023-01-28T03:26:17;99384.84;;;0.18;100.00
68169;BME280;54981;50.206;15.978;2023-01-28T03:29:39;99382.22;;;0.19;100.00
68169;BME280;54981;50.206;15.978;2023-01-28T03:33:00;99389.22;;;0.16;100.00
68169;BME280;54981;50.206;15.978;2023-01-28T03:36:20;99386.56;;;0.19;100.00
68169;BME280;54981;50.206;15.978;2023-01-28T03:39:39;99390.94;;;0.18;100.00
68169;BME280;54981;50.206;15.978;2023-01-28T03:42:40;99385.69;;;0.18;100.00
68169;BME280;54981;50.206;15.978;2023-01-28T03:45:40;99384.88;;;0.15;100.00
68169;BME280;54981;50.206;15.978;2023-01-28T03:48:41;99385.69;;;0.21;100.00
68169;BME280;54981;50.206;15.978;2023-01-28T03:51:41;99385.69;;;0.18;100.00
68169;BME280;54981;50.206;15.978;2023-01-28T03:54:44;99389.19;;;0.20;100.00
68169;BME280;54981;50.206;15.978;2023-01-28T03:57:46;99386.56;;;0.20;100.00
68169;BME280;54981;50.206;15.978;2023-01-28T04:00:47;99382.25;;;0.13;100.00
68169;BME280;54981;50.206;15.978;2023-01-28T04:03:47;99384.84;;;0.18;100.00
68169;BME280;54981;50.206;15.978;2023-01-28T04:06:51;99390.09;;;0.15;100.00
68169;BME280;54981;50.206;15.978;2023-01-28T04:09:51;99392.72;;;0.12;100.00
68169;BME280;54981;50.206;15.978;2023-01-28T04:12:52;99390.09;;;0.12;100.00
68169;BME280;54981;50.206;15.978;2023-01-28T04:15:53;99390.09;;;0.12;100.00
68169;BME280;54981;50.206;15.978;2023-01-28T04:18:53;99389.25;;;0.13;100.00
68169;BME280;54981;50.206;15.978;2023-01-28T04:21:54;99395.38;;;0.10;100.00
68169;BME280;54981;50.206;15.978;2023-01-28T04:24:55;99396.22;;;0.12;100.00
68169;BME280;54981;50.206;15.978;2023-01-28T04:27:56;99391.00;;;0.12;100.00
68169;BME280;54981;50.206;15.978;2023-01-28T04:30:56;99392.72;;;0.12;100.00
68169;BME280;54981;50.206;15.978;2023-01-28T04:33:57;99399.69;;;0.14;100.00
68169;BME280;54981;50.206;15.978;2023-01-28T04:36:57;99395.34;;;0.15;100.00
68169;BME280;54981;50.206;15.978;2023-01-28T04:39:57;99398.81;;;0.15;100.00
68169;BME280;54981;50.206;15.978;2023-01-28T04:42:58;99392.69;;;0.19;100.00
68169;BME280;54981;50.206;15.978;2023-01-28T04:45:58;99399.69;;;0.17;100.00
68169;BME280;54981;50.206;15.978;2023-01-28T04:48:58;99398.78;;;0.18;100.00
68169;BME280;54981;50.206;15.978;2023-01-28T04:51:59;99397.94;;;0.19;100.00
68169;BME280;54981;50.206;15.978;2023-01-28T04:55:00;99400.53;;;0.24;100.00
68169;BME280;54981;50.206;15.978;2023-01-28T04:58:02;99398.78;;;0.23;100.00
68169;BME280;54981;50.206;15.978;2023-01-28T05:01:03;99403.13;;;0.26;100.00
68169;BME280;54981;50.206;15.978;2023-01-28T05:04:03;99400.50;;;0.26;100.00
68169;BME280;54981;50.206;15.978;2023-01-28T05:07:04;99402.25;;;0.27;100.00
68169;BME280;54981;50.206;15.978;2023-01-28T05:10:05;99402.22;;;0.30;100.00
68169;BME280;54981;50.206;15.978;2023-01-28T05:13:06;99412.72;;;0.27;100.00
68169;BME280;54981;50.206;15.978;2023-01-28T05:16:07;99414.47;;;0.28;100.00
68169;BME280;54981;50.206;15.978;2023-01-28T05:19:07;99412.72;;;0.30;100.00
68169;BME280;54981;50.206;15.978;2023-01-28T05:22:08;99416.22;;;0.27;100.00
68169;BME280;54981;50.206;15.978;2023-01-28T05:25:09;99423.19;;;0.25;100.00
68169;BME280;54981;50.206;15.978;2023-01-28T05:28:09;99427.56;;;0.25;100.00
68169;BME280;54981;50.206;15.978;2023-01-28T05:31:09;99431.06;;;0.24;100.00
68169;BME280;54981;50.206;15.978;2023-01-28T05:34:11;99426.72;;;0.23;100.00
68169;BME280;54981;50.206;15.978;2023-01-28T05:37:11;99423.19;;;0.24;100.00
68169;BME280;54981;50.206;15.978;2023-01-28T05:40:12;99421.50;;;0.18;100.00
68169;BME280;54981;50.206;15.978;2023-01-28T05:43:12;99430.25;;;0.17;100.00
68169;BME280;54981;50.206;15.978;2023-01-28T05:46:13;99445.06;;;0.18;100.00
68169;BME280;54981;50.206;15.978;2023-01-28T05:49:13;99439.84;;;0.13;100.00
68169;BME280;54981;50.206;15.978;2023-01-28T05:52:14;99437.22;;;0.13;100.00
68169;BME280;54981;50.206;15.978;2023-01-28T05:55:14;99444.22;;;0.11;100.00
68169;BME280;54981;50.206;15.978;2023-01-28T05:58:14;99441.59;;;0.13;100.00
68169;BME280;54981;50.206;15.978;2023-01-28T06:01:15;99442.47;;;0.09;100.00
68169;BME280;54981;50.206;15.978;2023-01-28T06:04:15;99449.50;;;0.05;100.00
68169;BME280;54981;50.206;15.978;2023-01-28T06:07:18;99446.88;;;0.05;100.00
68169;BME280;54981;50.206;15.978;2023-01-28T06:10:19;99449.50;;;0.05;100.00
68169;BME280;54981;50.206;15.978;2023-01-28T06:13:19;99446.88;;;0.05;100.00
68169;BME280;54981;50.206;15.978;2023-01-28T06:16:20;99457.34;;;0.02;100.00
68169;BME280;54981;50.206;15.978;2023-01-28T06:19:20;99445.16;;;0.03;100.00
68169;BME280;54981;50.206;15.978;2023-01-28T06:22:21;99456.50;;;-0.02;100.00
68169;BME280;54981;50.206;15.978;2023-01-28T06:25:21;99459.13;;;0.00;100.00
68169;BME280;54981;50.206;15.978;2023-01-28T06:28:22;99463.47;;;0.03;100.00
68169;BME280;54981;50.206;15.978;2023-01-28T06:31:23;99464.34;;;0.00;100.00
68169;BME280;54981;50.206;15.978;2023-01-28T06:34:23;99463.47;;;-0.01;100.00
68169;BME280;54981;50.206;15.978;2023-01-28T06:37:24;99468.69;;;0.01;100.00
68169;BME280;54981;50.206;15.978;2023-01-28T06:40:25;99467.84;;;-0.01;100.00
68169;BME280;54981;50.206;15.978;2023-01-28T06:43:25;99473.06;;;-0.01;100.00
68169;BME280;54981;50.206;15.978;2023-01-28T06:46:29;99479.19;;;-0.02;100.00
68169;BME280;54981;50.206;15.978;2023-01-28T06:51:43;99476.56;;;-0.02;100.00
68169;BME280;54981;50.206;15.978;2023-01-28T06:55:43;99473.06;;;-0.03;100.00
68169;BME280;54981;50.206;15.978;2023-01-28T06:59:44;99481.78;;;-0.01;100.00
68169;BME280;54981;50.206;15.978;2023-01-28T07:03:44;99487.03;;;-0.05;100.00
68169;BME280;54981;50.206;15.978;2023-01-28T07:07:44;99490.53;;;0.00;100.00
68169;BME280;54981;50.206;15.978;2023-01-28T07:11:45;99508.84;;;-0.02;100.00
68169;BME280;54981;50.206;15.978;2023-01-28T07:15:45;99509.72;;;-0.03;100.00
68169;BME280;54981;50.206;15.978;2023-01-28T07:19:46;99507.09;;;0.01;100.00
68169;BME280;54981;50.206;15.978;2023-01-28T07:23:46;99522.78;;;0.04;100.00
68169;BME280;54981;50.206;15.978;2023-01-28T07:27:52;99527.19;;;0.00;100.00
68169;BME280;54981;50.206;15.978;2023-01-28T07:31:52;99527.16;;;-0.03;100.00
68169;BME280;54981;50.206;15.978;2023-01-28T07:35:52;99533.31;;;-0.09;100.00
68169;BME280;54981;50.206;15.978;2023-01-28T07:39:53;99537.66;;;-0.09;100.00
68169;BME280;54981;50.206;15.978;2023-01-28T07:43:53;99534.16;;;-0.08;100.00
68169;BME280;54981;50.206;15.978;2023-01-28T07:47:57;99542.00;;;-0.08;100.00
68169;BME280;54981;50.206;15.978;2023-01-28T07:51:58;99542.88;;;-0.06;100.00
68169;BME280;54981;50.206;15.978;2023-01-28T07:56:00;99546.41;;;-0.07;100.00
68169;BME280;54981;50.206;15.978;2023-01-28T08:00:00;99547.25;;;-0.07;100.00
68169;BME280;54981;50.206;15.978;2023-01-28T08:04:00;99549.84;;;-0.05;100.00
68169;BME280;54981;50.206;15.978;2023-01-28T08:08:01;99555.97;;;-0.06;100.00
68169;BME280;54981;50.206;15.978;2023-01-28T08:12:01;99554.22;;;-0.06;100.00
68169;BME280;54981;50.206;15.978;2023-01-28T08:16:02;99563.81;;;-0.08;100.00
68169;BME280;54981;50.206;15.978;2023-01-28T08:20:03;99564.69;;;-0.10;100.00
68169;BME280;54981;50.206;15.978;2023-01-28T08:24:04;99561.22;;;-0.12;100.00
68169;BME280;54981;50.206;15.978;2023-01-28T08:28:05;99567.34;;;-0.13;100.00
68169;BME280;54981;50.206;15.978;2023-01-28T08:32:06;99575.19;;;-0.16;100.00
68169;BME280;54981;50.206;15.978;2023-01-28T08:36:07;99576.06;;;-0.17;100.00
68169;BME280;54981;50.206;15.978;2023-01-28T08:40:08;99573.44;;;-0.16;100.00
68169;BME280;54981;50.206;15.978;2023-01-28T08:44:08;99570.81;;;-0.16;100.00
68169;BME280;54981;50.206;15.978;2023-01-28T08:48:13;99577.81;;;-0.16;100.00
68169;BME280;54981;50.206;15.978;2023-01-28T08:52:14;99576.06;;;-0.16;100.00
68169;BME280;54981;50.206;15.978;2023-01-28T08:56:15;99574.28;;;-0.12;100.00
68169;BME280;54981;50.206;15.978;2023-01-28T09:00:16;99577.78;;;-0.10;100.00
68169;BME280;54981;50.206;15.978;2023-01-28T09:04:16;99580.41;;;-0.06;100.00
68169;BME280;54981;50.206;15.978;2023-01-28T09:08:16;99581.28;;;-0.02;100.00
68169;BME280;54981;50.206;15.978;2023-01-28T09:12:17;99590.00;;;0.00;100.00
68169;BME280;54981;50.206;15.978;2023-01-28T09:16:17;99579.53;;;-0.06;100.00
68169;BME280;54981;50.206;15.978;2023-01-28T09:20:18;99596.09;;;-0.06;100.00
68169;BME280;54981;50.206;15.978;2023-01-28T09:24:18;99596.97;;;0.01;100.00
68169;BME280;54981;50.206;15.978;2023-01-28T09:28:19;99600.47;;;0.00;100.00
68169;BME280;54981;50.206;15.978;2023-01-28T09:32:19;99598.72;;;0.05;100.00
68169;BME280;54981;50.206;15.978;2023-01-28T09:36:20;99603.09;;;0.03;100.00
68169;BME280;54981;50.206;15.978;2023-01-28T09:48:46;99599.59;;;0.10;100.00
68169;BME280;54981;50.206;15.978;2023-01-28T09:52:48;99607.41;;;0.07;100.00
68169;BME280;54981;50.206;15.978;2023-01-28T09:56:53;99605.69;;;0.06;100.00
68169;BME280;54981;50.206;15.978;2023-01-28T10:06:02;99607.44;;;0.10;100.00
68169;BME280;54981;50.206;15.978;2023-01-28T10:18:51;99606.56;;;0.10;100.00
68169;BME280;54981;50.206;15.978;2023-01-28T10:23:07;99611.78;;;0.17;100.00
68169;BME280;54981;50.206;15.978;2023-01-28T10:27:25;99606.53;;;0.19;100.00
68169;BME280;54981;50.206;15.978;2023-01-28T10:31:30;99610.88;;;0.23;100.00
68169;BME280;54981;50.206;15.978;2023-01-28T10:35:39;99612.63;;;0.16;100.00
68169;BME280;54981;50.206;15.978;2023-01-28T10:39:40;99610.00;;;0.21;100.00
68169;BME280;54981;50.206;15.978;2023-01-28T10:43:41;99603.91;;;0.20;100.00
68169;BME280;54981;50.206;15.978;2023-01-28T10:47:49;99614.38;;;0.20;100.00
68169;BME280;54981;50.206;15.978;2023-01-28T10:51:52;99611.78;;;0.22;100.00
68169;BME280;54981;50.206;15.978;2023-01-28T10:55:55;99611.78;;;0.27;100.00
68169;BME280;54981;50.206;15.978;2023-01-28T10:59:57;99615.28;;;0.19;100.00
68169;BME280;54981;50.206;15.978;2023-01-28T11:04:16;99612.63;;;0.16;100.00
68169;BME280;54981;50.206;15.978;2023-01-28T11:08:18;99613.53;;;0.14;100.00
68169;BME280;54981;50.206;15.978;2023-01-28T11:12:24;99620.53;;;0.03;100.00
68169;BME280;54981;50.206;15.978;2023-01-28T11:16:26;99617.06;;;-0.04;100.00
68169;BME280;54981;50.206;15.978;2023-01-28T11:20:28;99621.41;;;-0.03;100.00
68169;BME280;54981;50.206;15.978;2023-01-28T11:24:32;99619.69;;;-0.07;100.00
68169;BME280;54981;50.206;15.978;2023-01-28T11:28:34;99623.16;;;-0.07;100.00
68169;BME280;54981;50.206;15.978;2023-01-28T11:32:39;99632.75;;;-0.04;100.00
68169;BME280;54981;50.206;15.978;2023-01-28T11:36:49;99631.00;;;-0.04;100.00
68169;BME280;54981;50.206;15.978;2023-01-28T11:40:58;99626.66;;;-0.06;100.00
68169;BME280;54981;50.206;15.978;2023-01-28T11:45:00;99624.91;;;-0.04;100.00
68169;BME280;54981;50.206;15.978;2023-01-28T11:57:25;99623.16;;;0.06;100.00
68169;BME280;54981;50.206;15.978;2023-01-28T12:23:34;99631.88;;;0.02;100.00
68169;BME280;54981;50.206;15.978;2023-01-28T12:28:12;99628.38;;;0.01;100.00
68169;BME280;54981;50.206;15.978;2023-01-28T12:41:06;99624.91;;;-0.01;100.00
68169;BME280;54981;50.206;15.978;2023-01-28T12:50:20;99620.50;;;0.07;100.00
68169;BME280;54981;50.206;15.978;2023-01-28T12:54:26;99628.38;;;0.10;100.00
68169;BME280;54981;50.206;15.978;2023-01-28T12:59:02;99631.84;;;0.14;100.00
68169;BME280;54981;50.206;15.978;2023-01-28T13:03:20;99627.50;;;0.04;100.00
68169;BME280;54981;50.206;15.978;2023-01-28T13:11:58;99630.97;;;0.07;100.00
68169;BME280;54981;50.206;15.978;2023-01-28T13:16:00;99630.97;;;0.13;100.00
68169;BME280;54981;50.206;15.978;2023-01-28T13:20:13;99627.53;;;0.05;100.00
68169;BME280;54981;50.206;15.978;2023-01-28T13:28:34;99637.13;;;-0.14;100.00
68169;BME280;54981;50.206;15.978;2023-01-28T13:32:34;99639.75;;;-0.15;100.00
68169;BME280;54981;50.206;15.978;2023-01-28T13:36:43;99644.97;;;-0.17;100.00
68169;BME280;54981;50.206;15.978;2023-01-28T13:40:59;99661.53;;;-0.19;100.00
68169;BME280;54981;50.206;15.978;2023-01-28T13:49:22;99659.81;;;-0.30;100.00
68169;BME280;54981;50.206;15.978;2023-01-28T13:53:35;99661.53;;;-0.32;100.00
68169;BME280;54981;50.206;15.978;2023-01-28T14:19:29;99668.50;;;-0.46;100.00
68169;BME280;54981;50.206;15.978;2023-01-28T14:23:31;99674.63;;;-0.44;100.00
68169;BME280;54981;50.206;15.978;2023-01-28T14:27:39;99669.38;;;-0.47;100.00
68169;BME280;54981;50.206;15.978;2023-01-28T14:31:42;99672.84;;;-0.51;100.00
68169;BME280;54981;50.206;15.978;2023-01-28T14:35:44;99678.09;;;-0.56;100.00
68169;BME280;54981;50.206;15.978;2023-01-28T14:39:58;99672.00;;;-0.55;100.00
68169;BME280;54981;50.206;15.978;2023-01-28T14:43:59;99675.47;;;-0.51;100.00
68169;BME280;54981;50.206;15.978;2023-01-28T15:01:00;99694.66;;;-0.55;100.00
68169;BME280;54981;50.206;15.978;2023-01-28T15:05:16;99702.50;;;-0.61;100.00
68169;BME280;54981;50.206;15.978;2023-01-28T15:09:16;99697.25;;;-0.63;100.00
68169;BME280;54981;50.206;15.978;2023-01-28T15:13:26;99691.16;;;-0.63;100.00
68169;BME280;54981;50.206;15.978;2023-01-28T15:17:27;99705.09;;;-0.65;100.00
68169;BME280;54981;50.206;15.978;2023-01-28T15:21:28;99716.41;;;-0.69;100.00
68169;BME280;54981;50.206;15.978;2023-01-28T15:25:29;99718.13;;;-0.72;100.00
68169;BME280;54981;50.206;15.978;2023-01-28T15:29:32;99718.16;;;-0.77;100.00
68169;BME280;54981;50.206;15.978;2023-01-28T15:33:33;99730.31;;;-0.77;100.00
68169;BME280;54981;50.206;15.978;2023-01-28T15:37:33;99726.84;;;-0.79;100.00
68169;BME280;54981;50.206;15.978;2023-01-28T15:41:37;99730.31;;;-0.82;100.00
68169;BME280;54981;50.206;15.978;2023-01-28T15:45:44;99732.06;;;-0.84;100.00
68169;BME280;54981;50.206;15.978;2023-01-28T15:49:46;99748.59;;;-0.85;100.00
68169;BME280;54981;50.206;15.978;2023-01-28T15:53:51;99745.09;;;-0.87;100.00
68169;BME280;54981;50.206;15.978;2023-01-28T15:57:52;99745.09;;;-0.87;100.00
68169;BME280;54981;50.206;15.978;2023-01-28T16:02:20;99748.59;;;-0.88;100.00
68169;BME280;54981;50.206;15.978;2023-01-28T16:06:22;99753.81;;;-0.91;100.00
68169;BME280;54981;50.206;15.978;2023-01-28T16:10:26;99766.88;;;-0.96;100.00
68169;BME280;54981;50.206;15.978;2023-01-28T16:14:30;99765.09;;;-1.00;100.00
68169;BME280;54981;50.206;15.978;2023-01-28T16:18:38;99759.84;;;-1.04;100.00
68169;BME280;54981;50.206;15.978;2023-01-28T16:22:39;99769.41;;;-1.07;100.00
68169;BME280;54981;50.206;15.978;2023-01-28T16:26:42;99762.47;;;-1.04;100.00
68169;BME280;54981;50.206;15.978;2023-01-28T16:30:42;99767.69;;;-1.01;100.00
68169;BME280;54981;50.206;15.978;2023-01-28T16:34:43;99778.13;;;-1.11;100.00
68169;BME280;54981;50.206;15.978;2023-01-28T16:38:44;99782.44;;;-1.11;100.00
68169;BME280;54981;50.206;15.978;2023-01-28T16:42:45;99791.19;;;-1.11;100.00
68169;BME280;54981;50.206;15.978;2023-01-28T16:46:47;99796.41;;;-1.12;100.00
68169;BME280;54981;50.206;15.978;2023-01-28T16:50:47;99798.13;;;-1.14;100.00
68169;BME280;54981;50.206;15.978;2023-01-28T16:54:48;99800.72;;;-1.17;100.00
68169;BME280;54981;50.206;15.978;2023-01-28T16:58:48;99796.34;;;-1.21;100.00
68169;BME280;54981;50.206;15.978;2023-01-28T17:02:50;99798.97;;;-1.20;100.00
68169;BME280;54981;50.206;15.978;2023-01-28T17:06:50;99786.78;;;-1.18;100.00
68169;BME280;54981;50.206;15.978;2023-01-28T17:10:54;99800.69;;;-1.22;100.00
68169;BME280;54981;50.206;15.978;2023-01-28T17:14:55;99801.50;;;-1.27;100.00
68169;BME280;54981;50.206;15.978;2023-01-28T17:18:55;99818.03;;;-1.33;100.00
68169;BME280;54981;50.206;15.978;2023-01-28T17:22:56;99816.31;;;-1.31;100.00
68169;BME280;54981;50.206;15.978;2023-01-28T17:26:56;99807.50;;;-1.45;100.00
68169;BME280;54981;50.206;15.978;2023-01-28T17:30:57;99812.66;;;-1.52;100.00
68169;BME280;54981;50.206;15.978;2023-01-28T17:34:57;99813.53;;;-1.53;100.00
68169;BME280;54981;50.206;15.978;2023-01-28T17:38:57;99816.13;;;-1.53;100.00
68169;BME280;54981;50.206;15.978;2023-01-28T17:42:58;99820.47;;;-1.52;100.00
68169;BME280;54981;50.206;15.978;2023-01-28T17:46:58;99811.78;;;-1.55;100.00
68169;BME280;54981;50.206;15.978;2023-01-28T17:50:58;99815.19;;;-1.62;100.00
68169;BME280;54981;50.206;15.978;2023-01-28T17:54:59;99815.19;;;-1.65;100.00
68169;BME280;54981;50.206;15.978;2023-01-28T17:59:01;99826.50;;;-1.65;100.00
68169;BME280;54981;50.206;15.978;2023-01-28T18:03:02;99818.63;;;-1.66;100.00
68169;BME280;54981;50.206;15.978;2023-01-28T18:07:03;99816.88;;;-1.70;100.00
68169;BME280;54981;50.206;15.978;2023-01-28T18:11:11;99815.09;;;-1.72;100.00
68169;BME280;54981;50.206;15.978;2023-01-28T18:15:12;99815.13;;;-1.73;100.00
68169;BME280;54981;50.206;15.978;2023-01-28T18:19:13;99803.78;;;-1.72;100.00
68169;BME280;54981;50.206;15.978;2023-01-28T18:23:13;99819.44;;;-1.75;100.00
68169;BME280;54981;50.206;15.978;2023-01-28T18:27:13;99820.25;;;-1.79;100.00
68169;BME280;54981;50.206;15.978;2023-01-28T18:31:14;99820.25;;;-1.82;100.00
68169;BME280;54981;50.206;15.978;2023-01-28T18:35:14;99826.31;;;-1.85;100.00
68169;BME280;54981;50.206;15.978;2023-01-28T18:39:18;99829.78;;;-1.84;100.00
68169;BME280;54981;50.206;15.978;2023-01-28T18:43:19;99816.72;;;-1.86;100.00
68169;BME280;54981;50.206;15.978;2023-01-28T18:47:20;99816.75;;;-1.84;100.00
68169;BME280;54981;50.206;15.978;2023-01-28T18:51:20;99826.31;;;-1.83;100.00
68169;BME280;54981;50.206;15.978;2023-01-28T18:55:21;99824.56;;;-1.84;100.00
68169;BME280;54981;50.206;15.978;2023-01-28T18:59:21;99828.91;;;-1.86;100.00
68169;BME280;54981;50.206;15.978;2023-01-28T19:03:22;99848.88;;;-1.88;100.00
68169;BME280;54981;50.206;15.978;2023-01-28T19:07:22;99850.59;;;-1.90;100.00
68169;BME280;54981;50.206;15.978;2023-01-28T19:11:24;99849.72;;;-1.93;100.00
68169;BME280;54981;50.206;15.978;2023-01-28T19:15:25;99856.66;;;-1.93;100.00
68169;BME280;54981;50.206;15.978;2023-01-28T19:19:25;99863.66;;;-1.92;100.00
68169;BME280;54981;50.206;15.978;2023-01-28T19:23:25;99859.31;;;-1.88;100.00
68169;BME280;54981;50.206;15.978;2023-01-28T19:27:26;99864.53;;;-1.91;100.00
68169;BME280;54981;50.206;15.978;2023-01-28T19:31:27;99869.78;;;-1.85;100.00
68169;BME280;54981;50.206;15.978;2023-01-28T19:35:27;99876.75;;;-1.87;100.00
68169;BME280;54981;50.206;15.978;2023-01-28T19:39:28;99889.84;;;-1.84;100.00
68169;BME280;54981;50.206;15.978;2023-01-28T19:43:30;99886.34;;;-1.85;100.00
68169;BME280;54981;50.206;15.978;2023-01-28T19:47:31;99894.13;;;-1.89;100.00
68169;BME280;54981;50.206;15.978;2023-01-28T19:51:32;99889.63;;;-2.03;100.00
68169;BME280;54981;50.206;15.978;2023-01-28T19:55:32;99902.69;;;-2.00;100.00
68169;BME280;54981;50.206;15.978;2023-01-28T19:59:32;99900.94;;;-2.02;100.00
68169;BME280;54981;50.206;15.978;2023-01-28T20:03:33;99902.63;;;-2.09;100.00
68169;BME280;54981;50.206;15.978;2023-01-28T20:07:33;99908.72;;;-2.07;100.00
68169;BME280;54981;50.206;15.978;2023-01-28T20:11:34;99895.63;;;-2.10;100.00
68169;BME280;54981;50.206;15.978;2023-01-28T20:15:38;99907.81;;;-2.10;100.00
68169;BME280;54981;50.206;15.978;2023-01-28T20:19:38;99905.19;;;-2.13;100.00
68169;BME280;54981;50.206;15.978;2023-01-28T20:23:39;99899.81;;;-2.24;100.00
68169;BME280;54981;50.206;15.978;2023-01-28T20:27:39;99912.84;;;-2.24;100.00
68169;BME280;54981;50.206;15.978;2023-01-28T20:31:41;99921.56;;;-2.25;100.00
68169;BME280;54981;50.206;15.978;2023-01-28T20:35:42;99926.66;;;-2.31;100.00
68169;BME280;54981;50.206;15.978;2023-01-28T20:39:42;99925.78;;;-2.33;100.00
68169;BME280;54981;50.206;15.978;2023-01-28T20:43:43;99929.28;;;-2.33;100.00
68169;BME280;54981;50.206;15.978;2023-01-28T20:47:44;99937.97;;;-2.32;100.00
68169;BME280;54981;50.206;15.978;2023-01-28T20:51:44;99932.75;;;-2.31;100.00
68169;BME280;54981;50.206;15.978;2023-01-28T20:55:54;99937.03;;;-2.36;100.00
68169;BME280;54981;50.206;15.978;2023-01-28T20:59:55;99944.81;;;-2.41;100.00